sensor_id;sensor_type;location;lat;lon;timestamp;temperature;humidity
44767;DHT22;30487;48.716;9.272;2023-03-01T00:01:17;2.00;86.50
44767;DHT22;30487;48.716;9.272;2023-03-01T00:03:43;2.00;86.70
44767;DHT22;30487;48.716;9.272;2023-03-01T00:06:09;2.00;86.70
44767;DHT22;30487;48.716;9.272;2023-03-01T00:08:36;2.00;86.90
44767;DHT22;30487;48.716;9.272;2023-03-01T00:11:17;2.00;87.00
44767;DHT22;30487;48.716;9.272;2023-03-01T00:13:44;2.00;87.10
44767;DHT22;30487;48.716;9.272;2023-03-01T00:16:30;1.90;87.30
44767;DHT22;30487;48.716;9.272;2023-03-01T00:18:57;1.90;87.60
44767;DHT22;30487;48.716;9.272;2023-03-01T00:21:23;1.90;87.70
44767;DHT22;30487;48.716;9.272;2023-03-01T00:23:49;1.90;87.90
44767;DHT22;30487;48.716;9.272;2023-03-01T00:26:16;1.80;88.00
44767;DHT22;30487;48.716;9.272;2023-03-01T00:28:43;1.80;88.00
44767;DHT22;30487;48.716;9.272;2023-03-01T00:31:11;1.80;88.30
44767;DHT22;30487;48.716;9.272;2023-03-01T00:33:37;1.70;88.40
44767;DHT22;30487;48.716;9.272;2023-03-01T00:36:04;1.70;88.70
44767;DHT22;30487;48.716;9.272;2023-03-01T00:38:30;1.70;88.80
44767;DHT22;30487;48.716;9.272;2023-03-01T00:41:03;1.60;89.10
44767;DHT22;30487;48.716;9.272;2023-03-01T00:43:29;1.60;89.30
44767;DHT22;30487;48.716;9.272;2023-03-01T00:45:54;1.60;89.70
44767;DHT22;30487;48.716;9.272;2023-03-01T00:48:20;1.60;90.00
44767;DHT22;30487;48.716;9.272;2023-03-01T00:50:46;1.60;90.00
44767;DHT22;30487;48.716;9.272;2023-03-01T00:53:11;1.50;90.20
44767;DHT22;30487;48.716;9.272;2023-03-01T00:55:37;1.50;90.20
44767;DHT22;30487;48.716;9.272;2023-03-01T00:58:02;1.50;90.30
44767;DHT22;30487;48.716;9.272;2023-03-01T01:00:28;1.40;90.50
44767;DHT22;30487;48.716;9.272;2023-03-01T01:02:53;1.40;90.70
44767;DHT22;30487;48.716;9.272;2023-03-01T01:05:19;1.40;90.80
44767;DHT22;30487;48.716;9.272;2023-03-01T01:07:46;1.40;91.00
44767;DHT22;30487;48.716;9.272;2023-03-01T01:10:12;1.40;91.10
44767;DHT22;30487;48.716;9.272;2023-03-01T01:12:43;1.50;91.30
44767;DHT22;30487;48.716;9.272;2023-03-01T01:15:09;1.50;91.30
44767;DHT22;30487;48.716;9.272;2023-03-01T01:17:37;1.40;91.40
44767;DHT22;30487;48.716;9.272;2023-03-01T01:20:03;1.50;91.50
44767;DHT22;30487;48.716;9.272;2023-03-01T01:22:29;1.50;91.60
44767;DHT22;30487;48.716;9.272;2023-03-01T01:24:54;1.50;91.70
44767;DHT22;30487;48.716;9.272;2023-03-01T01:27:20;1.50;91.80
44767;DHT22;30487;48.716;9.272;2023-03-01T01:29:45;1.50;91.90
44767;DHT22;30487;48.716;9.272;2023-03-01T01:32:11;1.50;91.90
44767;DHT22;30487;48.716;9.272;2023-03-01T01:34:36;1.50;92.00
44767;DHT22;30487;48.716;9.272;2023-03-01T01:37:02;1.50;92.00
44767;DHT22;30487;48.716;9.272;2023-03-01T01:39:28;1.50;92.10
44767;DHT22;30487;48.716;9.272;2023-03-01T01:41:54;1.50;92.10
44767;DHT22;30487;48.716;9.272;2023-03-01T01:44:23;1.50;92.10
44767;DHT22;30487;48.716;9.272;2023-03-01T01:47:04;1.40;92.30
44767;DHT22;30487;48.716;9.272;2023-03-01T01:54:45;1.50;92.60
44767;DHT22;30487;48.716;9.272;2023-03-01T01:57:27;1.50;92.70
44767;DHT22;30487;48.716;9.272;2023-03-01T01:59:57;1.50;92.80
44767;DHT22;30487;48.716;9.272;2023-03-01T02:02:24;1.60;92.90
44767;DHT22;30487;48.716;9.272;2023-03-01T02:04:54;1.60;93.00
44767;DHT22;30487;48.716;9.272;2023-03-01T02:07:24;1.70;93.00
44767;DHT22;30487;48.716;9.272;2023-03-01T02:09:52;1.70;93.00
44767;DHT22;30487;48.716;9.272;2023-03-01T02:12:21;1.70;92.90
44767;DHT22;30487;48.716;9.272;2023-03-01T02:14:48;1.70;92.90
44767;DHT22;30487;48.716;9.272;2023-03-01T02:17:15;1.70;93.00
44767;DHT22;30487;48.716;9.272;2023-03-01T02:20:26;1.70;93.00
44767;DHT22;30487;48.716;9.272;2023-03-01T02:22:53;1.70;93.10
44767;DHT22;30487;48.716;9.272;2023-03-01T02:25:25;1.80;93.00
44767;DHT22;30487;48.716;9.272;2023-03-01T02:27:59;1.80;93.10
44767;DHT22;30487;48.716;9.272;2023-03-01T02:30:27;1.80;93.20
44767;DHT22;30487;48.716;9.272;2023-03-01T02:32:55;1.80;93.10
44767;DHT22;30487;48.716;9.272;2023-03-01T02:35:37;1.80;93.10
44767;DHT22;30487;48.716;9.272;2023-03-01T02:38:06;1.80;93.10
44767;DHT22;30487;48.716;9.272;2023-03-01T02:40:34;1.80;93.20
44767;DHT22;30487;48.716;9.272;2023-03-01T02:43:04;1.80;93.20
44767;DHT22;30487;48.716;9.272;2023-03-01T02:45:31;1.90;93.40
44767;DHT22;30487;48.716;9.272;2023-03-01T02:47:57;1.90;93.40
44767;DHT22;30487;48.716;9.272;2023-03-01T02:53:32;1.90;93.30
44767;DHT22;30487;48.716;9.272;2023-03-01T02:55:59;2.00;93.40
44767;DHT22;30487;48.716;9.272;2023-03-01T02:58:24;1.90;93.40
44767;DHT22;30487;48.716;9.272;2023-03-01T03:00:50;1.90;93.40
44767;DHT22;30487;48.716;9.272;2023-03-01T03:03:20;1.90;93.50
44767;DHT22;30487;48.716;9.272;2023-03-01T03:05:47;2.00;93.50
44767;DHT22;30487;48.716;9.272;2023-03-01T03:08:13;2.00;93.50
44767;DHT22;30487;48.716;9.272;2023-03-01T03:10:41;2.00;93.60
44767;DHT22;30487;48.716;9.272;2023-03-01T03:13:15;2.00;93.70
44767;DHT22;30487;48.716;9.272;2023-03-01T03:15:41;2.00;93.60
44767;DHT22;30487;48.716;9.272;2023-03-01T03:18:10;2.00;93.50
44767;DHT22;30487;48.716;9.272;2023-03-01T03:20:36;2.00;93.60
44767;DHT22;30487;48.716;9.272;2023-03-01T03:23:03;1.90;93.60
44767;DHT22;30487;48.716;9.272;2023-03-01T03:25:29;1.90;93.80
44767;DHT22;30487;48.716;9.272;2023-03-01T03:27:56;1.90;93.80
44767;DHT22;30487;48.716;9.272;2023-03-01T03:30:28;1.90;93.90
44767;DHT22;30487;48.716;9.272;2023-03-01T03:32:55;2.00;94.10
44767;DHT22;30487;48.716;9.272;2023-03-01T03:35:28;2.00;94.00
44767;DHT22;30487;48.716;9.272;2023-03-01T03:37:55;2.00;94.10
44767;DHT22;30487;48.716;9.272;2023-03-01T03:40:38;2.00;94.10
44767;DHT22;30487;48.716;9.272;2023-03-01T03:43:07;2.00;94.10
44767;DHT22;30487;48.716;9.272;2023-03-01T03:45:34;2.00;94.20
44767;DHT22;30487;48.716;9.272;2023-03-01T03:48:01;2.00;94.20
44767;DHT22;30487;48.716;9.272;2023-03-01T03:50:27;2.00;94.10
44767;DHT22;30487;48.716;9.272;2023-03-01T03:52:52;2.00;94.10
44767;DHT22;30487;48.716;9.272;2023-03-01T03:55:18;2.00;94.20
44767;DHT22;30487;48.716;9.272;2023-03-01T03:57:45;2.00;94.20
44767;DHT22;30487;48.716;9.272;2023-03-01T04:00:18;2.10;94.30
44767;DHT22;30487;48.716;9.272;2023-03-01T04:02:44;2.10;94.30
44767;DHT22;30487;48.716;9.272;2023-03-01T04:05:12;2.00;94.20
44767;DHT22;30487;48.716;9.272;2023-03-01T04:07:38;2.00;94.30
44767;DHT22;30487;48.716;9.272;2023-03-01T04:10:06;2.00;94.30
44767;DHT22;30487;48.716;9.272;2023-03-01T04:12:32;2.00;94.30
44767;DHT22;30487;48.716;9.272;2023-03-01T04:15:00;2.00;94.50
44767;DHT22;30487;48.716;9.272;2023-03-01T04:17:25;2.00;94.40
44767;DHT22;30487;48.716;9.272;2023-03-01T04:19:51;2.00;94.40
44767;DHT22;30487;48.716;9.272;2023-03-01T04:22:17;2.00;94.50
44767;DHT22;30487;48.716;9.272;2023-03-01T04:24:44;2.00;94.60
44767;DHT22;30487;48.716;9.272;2023-03-01T04:27:10;2.00;94.60
44767;DHT22;30487;48.716;9.272;2023-03-01T04:29:36;2.00;94.60
44767;DHT22;30487;48.716;9.272;2023-03-01T04:32:01;1.90;94.70
44767;DHT22;30487;48.716;9.272;2023-03-01T04:34:28;1.90;94.70
44767;DHT22;30487;48.716;9.272;2023-03-01T04:36:54;1.90;94.80
44767;DHT22;30487;48.716;9.272;2023-03-01T04:39:20;1.90;94.90
44767;DHT22;30487;48.716;9.272;2023-03-01T04:41:45;1.90;94.90
44767;DHT22;30487;48.716;9.272;2023-03-01T04:44:11;1.90;94.80
44767;DHT22;30487;48.716;9.272;2023-03-01T04:46:36;1.90;94.90
44767;DHT22;30487;48.716;9.272;2023-03-01T04:49:03;2.00;94.90
44767;DHT22;30487;48.716;9.272;2023-03-01T04:51:29;1.90;94.90
44767;DHT22;30487;48.716;9.272;2023-03-01T04:53:54;2.00;94.90
44767;DHT22;30487;48.716;9.272;2023-03-01T04:56:20;2.00;95.00
44767;DHT22;30487;48.716;9.272;2023-03-01T04:58:48;2.00;95.00
44767;DHT22;30487;48.716;9.272;2023-03-01T05:01:16;2.00;95.00
44767;DHT22;30487;48.716;9.272;2023-03-01T05:03:52;2.00;95.00
44767;DHT22;30487;48.716;9.272;2023-03-01T05:06:18;1.90;95.10
44767;DHT22;30487;48.716;9.272;2023-03-01T05:08:45;2.00;95.10
44767;DHT22;30487;48.716;9.272;2023-03-01T05:11:11;2.10;95.20
44767;DHT22;30487;48.716;9.272;2023-03-01T05:13:38;2.00;95.10
44767;DHT22;30487;48.716;9.272;2023-03-01T05:16:04;2.00;95.20
44767;DHT22;30487;48.716;9.272;2023-03-01T05:18:32;2.00;95.20
44767;DHT22;30487;48.716;9.272;2023-03-01T05:21:11;2.00;95.30
44767;DHT22;30487;48.716;9.272;2023-03-01T05:23:37;2.00;95.30
44767;DHT22;30487;48.716;9.272;2023-03-01T05:26:04;2.00;95.30
44767;DHT22;30487;48.716;9.272;2023-03-01T05:28:31;2.10;95.20
44767;DHT22;30487;48.716;9.272;2023-03-01T05:30:57;2.00;95.20
44767;DHT22;30487;48.716;9.272;2023-03-01T05:33:23;2.10;95.20
44767;DHT22;30487;48.716;9.272;2023-03-01T05:35:50;2.10;95.20
44767;DHT22;30487;48.716;9.272;2023-03-01T05:38:17;2.10;95.10
44767;DHT22;30487;48.716;9.272;2023-03-01T05:40:45;2.10;95.20
44767;DHT22;30487;48.716;9.272;2023-03-01T05:43:12;2.10;95.10
44767;DHT22;30487;48.716;9.272;2023-03-01T05:45:38;2.10;95.20
44767;DHT22;30487;48.716;9.272;2023-03-01T05:48:05;2.10;95.20
44767;DHT22;30487;48.716;9.272;2023-03-01T05:50:40;2.10;95.20
44767;DHT22;30487;48.716;9.272;2023-03-01T05:53:10;2.10;95.20
44767;DHT22;30487;48.716;9.272;2023-03-01T05:55:36;2.10;95.20
44767;DHT22;30487;48.716;9.272;2023-03-01T05:58:04;2.10;95.20
44767;DHT22;30487;48.716;9.272;2023-03-01T06:00:31;2.10;95.20
44767;DHT22;30487;48.716;9.272;2023-03-01T06:02:57;2.10;95.30
44767;DHT22;30487;48.716;9.272;2023-03-01T06:05:24;2.10;95.20
44767;DHT22;30487;48.716;9.272;2023-03-01T06:07:50;2.20;95.20
44767;DHT22;30487;48.716;9.272;2023-03-01T06:10:17;2.20;95.30
44767;DHT22;30487;48.716;9.272;2023-03-01T06:12:43;2.10;95.30
44767;DHT22;30487;48.716;9.272;2023-03-01T06:15:13;2.10;95.30
44767;DHT22;30487;48.716;9.272;2023-03-01T06:17:40;2.10;95.20
44767;DHT22;30487;48.716;9.272;2023-03-01T06:20:18;2.20;95.30
44767;DHT22;30487;48.716;9.272;2023-03-01T06:22:44;2.20;95.30
44767;DHT22;30487;48.716;9.272;2023-03-01T06:25:12;2.20;95.30
44767;DHT22;30487;48.716;9.272;2023-03-01T06:27:39;2.20;95.30
44767;DHT22;30487;48.716;9.272;2023-03-01T06:30:05;2.20;95.30
44767;DHT22;30487;48.716;9.272;2023-03-01T06:32:32;2.20;95.40
44767;DHT22;30487;48.716;9.272;2023-03-01T06:34:58;2.20;95.30
44767;DHT22;30487;48.716;9.272;2023-03-01T06:37:24;2.30;95.30
44767;DHT22;30487;48.716;9.272;2023-03-01T06:39:50;2.30;95.30
44767;DHT22;30487;48.716;9.272;2023-03-01T06:42:16;2.30;95.20
44767;DHT22;30487;48.716;9.272;2023-03-01T06:44:41;2.30;95.20
44767;DHT22;30487;48.716;9.272;2023-03-01T06:47:07;2.40;95.10
44767;DHT22;30487;48.716;9.272;2023-03-01T06:49:33;2.40;95.10
44767;DHT22;30487;48.716;9.272;2023-03-01T06:51:58;2.50;95.10
44767;DHT22;30487;48.716;9.272;2023-03-01T06:54:24;2.40;95.10
44767;DHT22;30487;48.716;9.272;2023-03-01T06:56:50;2.40;95.20
44767;DHT22;30487;48.716;9.272;2023-03-01T06:59:16;2.50;95.20
44767;DHT22;30487;48.716;9.272;2023-03-01T07:01:42;2.50;95.20
44767;DHT22;30487;48.716;9.272;2023-03-01T07:04:10;2.60;95.10
44767;DHT22;30487;48.716;9.272;2023-03-01T07:06:36;2.60;95.00
44767;DHT22;30487;48.716;9.272;2023-03-01T07:09:02;2.60;95.00
44767;DHT22;30487;48.716;9.272;2023-03-01T07:11:27;2.70;95.00
44767;DHT22;30487;48.716;9.272;2023-03-01T07:13:53;2.80;94.90
44767;DHT22;30487;48.716;9.272;2023-03-01T07:16:19;3.00;94.90
44767;DHT22;30487;48.716;9.272;2023-03-01T07:18:45;3.10;95.00
44767;DHT22;30487;48.716;9.272;2023-03-01T07:21:13;3.20;94.80
44767;DHT22;30487;48.716;9.272;2023-03-01T07:23:39;3.30;94.50
44767;DHT22;30487;48.716;9.272;2023-03-01T07:26:05;3.50;94.50
44767;DHT22;30487;48.716;9.272;2023-03-01T07:28:30;3.60;94.40
44767;DHT22;30487;48.716;9.272;2023-03-01T07:31:03;3.80;94.10
44767;DHT22;30487;48.716;9.272;2023-03-01T07:33:30;4.10;93.70
44767;DHT22;30487;48.716;9.272;2023-03-01T07:36:00;4.20;93.40
44767;DHT22;30487;48.716;9.272;2023-03-01T07:38:26;4.40;93.00
44767;DHT22;30487;48.716;9.272;2023-03-01T07:40:52;4.60;92.60
44767;DHT22;30487;48.716;9.272;2023-03-01T07:43:18;4.70;92.30
44767;DHT22;30487;48.716;9.272;2023-03-01T07:45:44;4.90;92.00
44767;DHT22;30487;48.716;9.272;2023-03-01T07:48:10;5.10;91.80
44767;DHT22;30487;48.716;9.272;2023-03-01T07:50:35;5.30;91.50
44767;DHT22;30487;48.716;9.272;2023-03-01T07:53:01;5.50;91.10
44767;DHT22;30487;48.716;9.272;2023-03-01T07:55:27;5.70;90.70
44767;DHT22;30487;48.716;9.272;2023-03-01T07:57:53;6.00;90.60
44767;DHT22;30487;48.716;9.272;2023-03-01T08:00:19;6.10;89.80
44767;DHT22;30487;48.716;9.272;2023-03-01T08:02:44;6.00;89.90
44767;DHT22;30487;48.716;9.272;2023-03-01T08:05:10;6.20;89.00
44767;DHT22;30487;48.716;9.272;2023-03-01T08:07:36;6.50;88.80
44767;DHT22;30487;48.716;9.272;2023-03-01T08:10:02;6.80;88.10
44767;DHT22;30487;48.716;9.272;2023-03-01T08:12:28;7.00;86.80
44767;DHT22;30487;48.716;9.272;2023-03-01T08:14:54;7.20;86.00
44767;DHT22;30487;48.716;9.272;2023-03-01T08:17:20;7.40;85.40
44767;DHT22;30487;48.716;9.272;2023-03-01T08:19:45;7.70;85.00
44767;DHT22;30487;48.716;9.272;2023-03-01T08:22:11;7.80;83.60
44767;DHT22;30487;48.716;9.272;2023-03-01T08:24:37;8.00;82.80
44767;DHT22;30487;48.716;9.272;2023-03-01T08:27:02;8.30;87.20
44767;DHT22;30487;48.716;9.272;2023-03-01T08:29:31;8.50;84.50
44767;DHT22;30487;48.716;9.272;2023-03-01T08:31:56;8.70;82.20
44767;DHT22;30487;48.716;9.272;2023-03-01T08:34:22;8.90;80.50
44767;DHT22;30487;48.716;9.272;2023-03-01T08:36:48;9.00;79.30
44767;DHT22;30487;48.716;9.272;2023-03-01T08:39:16;9.20;79.10
44767;DHT22;30487;48.716;9.272;2023-03-01T08:41:43;9.40;78.70
44767;DHT22;30487;48.716;9.272;2023-03-01T08:44:11;9.70;77.40
44767;DHT22;30487;48.716;9.272;2023-03-01T08:46:39;9.90;76.70
44767;DHT22;30487;48.716;9.272;2023-03-01T08:49:16;10.10;76.30
44767;DHT22;30487;48.716;9.272;2023-03-01T08:51:43;10.20;74.30
44767;DHT22;30487;48.716;9.272;2023-03-01T08:54:18;10.40;74.40
44767;DHT22;30487;48.716;9.272;2023-03-01T08:56:44;10.50;73.90
44767;DHT22;30487;48.716;9.272;2023-03-01T08:59:14;10.70;72.40
44767;DHT22;30487;48.716;9.272;2023-03-01T09:01:40;10.90;72.10
44767;DHT22;30487;48.716;9.272;2023-03-01T09:04:08;11.10;70.30
44767;DHT22;30487;48.716;9.272;2023-03-01T09:06:35;11.30;70.80
44767;DHT22;30487;48.716;9.272;2023-03-01T09:09:01;11.40;69.50
44767;DHT22;30487;48.716;9.272;2023-03-01T09:11:28;11.60;68.40
44767;DHT22;30487;48.716;9.272;2023-03-01T09:13:53;11.60;67.70
44767;DHT22;30487;48.716;9.272;2023-03-01T09:16:20;11.80;68.00
44767;DHT22;30487;48.716;9.272;2023-03-01T09:18:52;12.00;67.00
44767;DHT22;30487;48.716;9.272;2023-03-01T09:21:19;12.20;66.80
44767;DHT22;30487;48.716;9.272;2023-03-01T09:23:47;12.70;66.00
44767;DHT22;30487;48.716;9.272;2023-03-01T09:26:19;13.00;64.00
44767;DHT22;30487;48.716;9.272;2023-03-01T09:28:45;13.10;63.20
44767;DHT22;30487;48.716;9.272;2023-03-01T09:31:12;13.10;63.40
44767;DHT22;30487;48.716;9.272;2023-03-01T09:33:38;13.20;63.50
44767;DHT22;30487;48.716;9.272;2023-03-01T09:36:06;13.10;62.70
44767;DHT22;30487;48.716;9.272;2023-03-01T09:38:33;13.10;63.30
44767;DHT22;30487;48.716;9.272;2023-03-01T09:40:59;13.40;62.70
44767;DHT22;30487;48.716;9.272;2023-03-01T09:43:43;13.70;62.30
44767;DHT22;30487;48.716;9.272;2023-03-01T09:46:10;14.10;60.20
44767;DHT22;30487;48.716;9.272;2023-03-01T09:48:52;14.20;59.90
44767;DHT22;30487;48.716;9.272;2023-03-01T09:51:29;14.00;59.90
44767;DHT22;30487;48.716;9.272;2023-03-01T09:53:55;14.10;60.20
44767;DHT22;30487;48.716;9.272;2023-03-01T09:56:30;14.30;58.60
44767;DHT22;30487;48.716;9.272;2023-03-01T09:59:19;14.20;58.00
44767;DHT22;30487;48.716;9.272;2023-03-01T10:02:04;14.20;58.20
44767;DHT22;30487;48.716;9.272;2023-03-01T10:04:46;14.40;57.80
44767;DHT22;30487;48.716;9.272;2023-03-01T10:09:57;15.20;59.00
44767;DHT22;30487;48.716;9.272;2023-03-01T10:12:27;15.30;57.70
44767;DHT22;30487;48.716;9.272;2023-03-01T10:17:30;15.60;56.70
44767;DHT22;30487;48.716;9.272;2023-03-01T10:20:05;15.80;56.50
44767;DHT22;30487;48.716;9.272;2023-03-01T10:22:36;15.90;55.90
44767;DHT22;30487;48.716;9.272;2023-03-01T10:25:03;16.00;55.60
44767;DHT22;30487;48.716;9.272;2023-03-01T10:27:40;16.00;54.70
44767;DHT22;30487;48.716;9.272;2023-03-01T10:30:32;16.00;53.90
44767;DHT22;30487;48.716;9.272;2023-03-01T10:32:59;16.20;54.30
44767;DHT22;30487;48.716;9.272;2023-03-01T10:35:28;16.30;54.10
44767;DHT22;30487;48.716;9.272;2023-03-01T10:38:09;16.30;53.50
44767;DHT22;30487;48.716;9.272;2023-03-01T10:40:37;16.30;53.80
44767;DHT22;30487;48.716;9.272;2023-03-01T10:43:14;16.60;53.50
44767;DHT22;30487;48.716;9.272;2023-03-01T10:45:40;16.80;53.40
44767;DHT22;30487;48.716;9.272;2023-03-01T10:48:26;16.80;55.10
44767;DHT22;30487;48.716;9.272;2023-03-01T10:58:33;17.30;53.70
44767;DHT22;30487;48.716;9.272;2023-03-01T11:01:00;17.30;52.40
44767;DHT22;30487;48.716;9.272;2023-03-01T11:03:29;17.60;52.00
44767;DHT22;30487;48.716;9.272;2023-03-01T11:08:45;17.70;51.10
44767;DHT22;30487;48.716;9.272;2023-03-01T11:13:58;17.50;51.60
44767;DHT22;30487;48.716;9.272;2023-03-01T11:16:36;17.50;51.10
44767;DHT22;30487;48.716;9.272;2023-03-01T11:21:41;17.80;51.60
44767;DHT22;30487;48.716;9.272;2023-03-01T11:24:14;17.80;50.70
44767;DHT22;30487;48.716;9.272;2023-03-01T11:26:43;18.00;51.30
44767;DHT22;30487;48.716;9.272;2023-03-01T11:29:43;18.20;50.10
44767;DHT22;30487;48.716;9.272;2023-03-01T11:32:09;18.20;50.10
44767;DHT22;30487;48.716;9.272;2023-03-01T11:35:05;18.40;50.00
44767;DHT22;30487;48.716;9.272;2023-03-01T11:37:50;18.50;49.70
44767;DHT22;30487;48.716;9.272;2023-03-01T11:40:37;18.30;49.20
44767;DHT22;30487;48.716;9.272;2023-03-01T11:43:15;18.40;50.00
44767;DHT22;30487;48.716;9.272;2023-03-01T11:57:39;19.10;48.60
44767;DHT22;30487;48.716;9.272;2023-03-01T12:03:23;19.70;49.00
44767;DHT22;30487;48.716;9.272;2023-03-01T12:14:32;20.30;46.50
44767;DHT22;30487;48.716;9.272;2023-03-01T12:36:18;21.00;45.30
44767;DHT22;30487;48.716;9.272;2023-03-01T12:38:48;20.90;45.10
44767;DHT22;30487;48.716;9.272;2023-03-01T12:41:53;21.20;44.70
44767;DHT22;30487;48.716;9.272;2023-03-01T12:44:42;21.30;44.50
44767;DHT22;30487;48.716;9.272;2023-03-01T12:47:49;21.40;44.50
44767;DHT22;30487;48.716;9.272;2023-03-01T12:50:20;21.30;44.30
44767;DHT22;30487;48.716;9.272;2023-03-01T12:52:56;21.30;47.90
44767;DHT22;30487;48.716;9.272;2023-03-01T12:55:31;21.90;45.30
44767;DHT22;30487;48.716;9.272;2023-03-01T13:01:00;22.00;44.00
44767;DHT22;30487;48.716;9.272;2023-03-01T13:09:05;22.40;51.20
44767;DHT22;30487;48.716;9.272;2023-03-01T13:11:34;22.70;50.10
44767;DHT22;30487;48.716;9.272;2023-03-01T13:16:54;22.80;48.70
44767;DHT22;30487;48.716;9.272;2023-03-01T13:19:26;22.70;45.40
44767;DHT22;30487;48.716;9.272;2023-03-01T13:21:58;22.40;44.70
44767;DHT22;30487;48.716;9.272;2023-03-01T13:24:27;22.30;43.90
44767;DHT22;30487;48.716;9.272;2023-03-01T13:29:44;22.20;43.70
44767;DHT22;30487;48.716;9.272;2023-03-01T13:32:28;22.30;43.40
44767;DHT22;30487;48.716;9.272;2023-03-01T13:34:59;21.70;43.40
44767;DHT22;30487;48.716;9.272;2023-03-01T13:37:32;21.90;43.50
44767;DHT22;30487;48.716;9.272;2023-03-01T13:40:00;21.90;42.90
44767;DHT22;30487;48.716;9.272;2023-03-01T13:42:36;21.80;43.50
44767;DHT22;30487;48.716;9.272;2023-03-01T13:46:07;21.90;43.00
44767;DHT22;30487;48.716;9.272;2023-03-01T13:48:02;22.00;42.90
44767;DHT22;30487;48.716;9.272;2023-03-01T13:50:36;21.90;43.20
44767;DHT22;30487;48.716;9.272;2023-03-01T13:53:06;21.80;43.10
44767;DHT22;30487;48.716;9.272;2023-03-01T13:55:41;21.70;43.00
44767;DHT22;30487;48.716;9.272;2023-03-01T13:58:26;21.20;43.00
44767;DHT22;30487;48.716;9.272;2023-03-01T14:01:04;21.30;43.70
44767;DHT22;30487;48.716;9.272;2023-03-01T14:03:32;21.30;43.10
44767;DHT22;30487;48.716;9.272;2023-03-01T14:06:03;21.00;43.20
44767;DHT22;30487;48.716;9.272;2023-03-01T14:08:31;21.10;43.20
44767;DHT22;30487;48.716;9.272;2023-03-01T14:16:53;20.80;43.40
44767;DHT22;30487;48.716;9.272;2023-03-01T14:19:26;20.70;43.50
44767;DHT22;30487;48.716;9.272;2023-03-01T14:22:26;20.90;43.40
44767;DHT22;30487;48.716;9.272;2023-03-01T14:24:55;20.90;43.60
44767;DHT22;30487;48.716;9.272;2023-03-01T14:27:23;21.10;47.40
44767;DHT22;30487;48.716;9.272;2023-03-01T14:29:56;20.70;45.70
44767;DHT22;30487;48.716;9.272;2023-03-01T14:32:25;20.60;50.30
44767;DHT22;30487;48.716;9.272;2023-03-01T14:34:51;20.40;46.40
44767;DHT22;30487;48.716;9.272;2023-03-01T14:37:27;20.00;45.70
44767;DHT22;30487;48.716;9.272;2023-03-01T14:39:54;19.40;45.50
44767;DHT22;30487;48.716;9.272;2023-03-01T14:42:22;19.30;46.10
44767;DHT22;30487;48.716;9.272;2023-03-01T14:44:51;19.10;45.70
44767;DHT22;30487;48.716;9.272;2023-03-01T14:47:38;19.00;47.10
44767;DHT22;30487;48.716;9.272;2023-03-01T14:50:07;18.60;47.00
44767;DHT22;30487;48.716;9.272;2023-03-01T14:52:38;18.40;46.90
44767;DHT22;30487;48.716;9.272;2023-03-01T14:55:16;18.30;47.10
44767;DHT22;30487;48.716;9.272;2023-03-01T14:57:46;18.40;46.80
44767;DHT22;30487;48.716;9.272;2023-03-01T15:00:21;17.90;46.80
44767;DHT22;30487;48.716;9.272;2023-03-01T15:02:49;17.50;47.30
44767;DHT22;30487;48.716;9.272;2023-03-01T15:05:25;17.20;47.90
44767;DHT22;30487;48.716;9.272;2023-03-01T15:07:51;17.10;48.10
44767;DHT22;30487;48.716;9.272;2023-03-01T15:10:21;17.00;48.30
44767;DHT22;30487;48.716;9.272;2023-03-01T15:12:47;16.80;48.30
44767;DHT22;30487;48.716;9.272;2023-03-01T15:15:38;16.70;48.60
44767;DHT22;30487;48.716;9.272;2023-03-01T15:18:21;16.60;48.90
44767;DHT22;30487;48.716;9.272;2023-03-01T15:20:48;16.20;49.20
44767;DHT22;30487;48.716;9.272;2023-03-01T15:23:24;16.10;49.50
44767;DHT22;30487;48.716;9.272;2023-03-01T15:25:51;15.90;49.40
44767;DHT22;30487;48.716;9.272;2023-03-01T15:28:23;15.70;49.60
44767;DHT22;30487;48.716;9.272;2023-03-01T15:30:55;15.50;50.00
44767;DHT22;30487;48.716;9.272;2023-03-01T15:36:03;15.30;50.30
44767;DHT22;30487;48.716;9.272;2023-03-01T15:38:57;15.00;50.50
44767;DHT22;30487;48.716;9.272;2023-03-01T15:43:52;14.60;51.50
44767;DHT22;30487;48.716;9.272;2023-03-01T15:46:35;14.50;51.90
44767;DHT22;30487;48.716;9.272;2023-03-01T15:49:33;14.40;51.70
44767;DHT22;30487;48.716;9.272;2023-03-01T15:52:00;14.20;51.70
44767;DHT22;30487;48.716;9.272;2023-03-01T15:54:27;14.00;52.10
44767;DHT22;30487;48.716;9.272;2023-03-01T15:56:53;13.90;52.40
44767;DHT22;30487;48.716;9.272;2023-03-01T15:59:19;13.80;52.60
44767;DHT22;30487;48.716;9.272;2023-03-01T16:01:45;13.60;52.50
44767;DHT22;30487;48.716;9.272;2023-03-01T16:04:16;13.40;52.70
44767;DHT22;30487;48.716;9.272;2023-03-01T16:06:52;13.40;53.10
44767;DHT22;30487;48.716;9.272;2023-03-01T16:09:23;13.40;53.10
44767;DHT22;30487;48.716;9.272;2023-03-01T16:11:49;13.20;53.30
44767;DHT22;30487;48.716;9.272;2023-03-01T16:14:18;13.10;53.30
44767;DHT22;30487;48.716;9.272;2023-03-01T16:16:46;12.90;53.60
44767;DHT22;30487;48.716;9.272;2023-03-01T16:19:14;12.80;54.00
44767;DHT22;30487;48.716;9.272;2023-03-01T16:21:40;12.40;54.30
44767;DHT22;30487;48.716;9.272;2023-03-01T16:24:05;12.40;56.40
44767;DHT22;30487;48.716;9.272;2023-03-01T16:26:31;12.20;55.50
44767;DHT22;30487;48.716;9.272;2023-03-01T16:28:58;12.10;55.40
44767;DHT22;30487;48.716;9.272;2023-03-01T16:31:24;12.00;55.40
44767;DHT22;30487;48.716;9.272;2023-03-01T16:33:54;11.90;55.40
44767;DHT22;30487;48.716;9.272;2023-03-01T16:36:22;11.80;55.30
44767;DHT22;30487;48.716;9.272;2023-03-01T16:38:49;11.70;55.70
44767;DHT22;30487;48.716;9.272;2023-03-01T16:41:17;11.60;55.70
44767;DHT22;30487;48.716;9.272;2023-03-01T16:43:43;11.30;56.10
44767;DHT22;30487;48.716;9.272;2023-03-01T16:46:16;11.10;56.30
44767;DHT22;30487;48.716;9.272;2023-03-01T16:48:42;11.00;56.50
44767;DHT22;30487;48.716;9.272;2023-03-01T16:51:08;10.90;56.70
44767;DHT22;30487;48.716;9.272;2023-03-01T16:53:35;10.80;57.00
44767;DHT22;30487;48.716;9.272;2023-03-01T16:56:08;10.70;56.90
44767;DHT22;30487;48.716;9.272;2023-03-01T16:58:35;10.60;57.10
44767;DHT22;30487;48.716;9.272;2023-03-01T17:01:12;10.40;57.40
44767;DHT22;30487;48.716;9.272;2023-03-01T17:03:39;10.20;57.80
44767;DHT22;30487;48.716;9.272;2023-03-01T17:06:08;10.20;58.10
44767;DHT22;30487;48.716;9.272;2023-03-01T17:08:35;10.10;58.10
44767;DHT22;30487;48.716;9.272;2023-03-01T17:11:09;10.00;58.30
44767;DHT22;30487;48.716;9.272;2023-03-01T17:13:36;9.80;58.50
44767;DHT22;30487;48.716;9.272;2023-03-01T17:16:04;9.70;59.30
44767;DHT22;30487;48.716;9.272;2023-03-01T17:18:30;9.60;58.90
44767;DHT22;30487;48.716;9.272;2023-03-01T17:20:56;9.40;59.30
44767;DHT22;30487;48.716;9.272;2023-03-01T17:23:21;9.30;59.40
44767;DHT22;30487;48.716;9.272;2023-03-01T17:25:47;9.20;59.60
44767;DHT22;30487;48.716;9.272;2023-03-01T17:28:13;9.20;59.90
44767;DHT22;30487;48.716;9.272;2023-03-01T17:30:42;9.10;59.90
44767;DHT22;30487;48.716;9.272;2023-03-01T17:33:08;9.10;59.90